Hlavní strana
METAR-TAF:

METAR-TAF

Letiště :

Valledupar, Kolumbie

zeměpisná šířka: 10-26N, zeměpisná délka: 073-15W, výška: 138 m

Aktuální stav počasí

Zpráva byla vytvořena před 57 minutami, v 13:00 UTC
Východoseverovýchodní vítr 7 kt, proměnlivý mezi severoseverovýchodním a východním
Teplota 28°C
Vlhkost vzduchu 79%
Tlak 1012 hPa
Viditelnost 10 km a více
Skoro jasno ve výšce 2000 ft
Polojasno ve výšce 20000 ft

METAR: SKVP 261300Z 06007KT 030V090 9999 FEW020 SCT200 28/24 A2988

Čas: 08:57 (13:57 UTC)


TAF: chybějící

Stav a předpovědi počasí z více než 4 000 letišť (zprávy METAR a TAF).

Červené a žluté tečky na mapě představují dostupné meteorologické stanice.

Když kurzor umístíte na tečku, zobrazí se název stanice.

Pak kliknutím zobrazíte stav a předpověď počasí.

Chcete-li změnit mapu, kliknutím na zelené tlačítko se znaménkem +mapu přiblížíte, kliknutím na zelené tlačítko se znaménkem – mapu oddálíte a kliknutím na zelené šipky přejdete na sousední mapy.


METAR-TAF: